createdAt,value
2023-01-30T00:01:52.972Z,98282.59
2023-01-30T00:04:19.349Z,98279.38
2023-01-30T00:06:45.737Z,98259.09
2023-01-30T00:09:15.191Z,98230.53
2023-01-30T00:11:42.437Z,98232.16
2023-01-30T00:14:08.759Z,98194.09
2023-01-30T00:16:35.550Z,98193.63
2023-01-30T00:19:01.943Z,98201.34
2023-01-30T00:21:28.500Z,98216.56
2023-01-30T00:23:54.806Z,98223.22
2023-01-30T00:26:21.194Z,98231.47
2023-01-30T00:28:47.600Z,98240.56
2023-01-30T00:31:13.967Z,98244.81
2023-01-30T00:33:40.323Z,98247.50
2023-01-30T00:36:06.888Z,98227.47
2023-01-30T00:38:33.494Z,98220.56
2023-01-30T00:40:59.835Z,98211.75
2023-01-30T00:43:44.537Z,98205.88
2023-01-30T00:46:45.305Z,98193.34
2023-01-30T00:49:11.725Z,98182.44
2023-01-30T00:51:38.055Z,98171.25
2023-01-30T00:54:04.405Z,98182.72
2023-01-30T00:56:30.726Z,98174.19
2023-01-30T00:58:57.067Z,98179.25
2023-01-30T01:01:23.400Z,98197.38
2023-01-30T01:03:49.705Z,98196.31
2023-01-30T01:06:16.036Z,98180.84
2023-01-30T01:08:42.345Z,98169.13
2023-01-30T01:11:08.683Z,98165.94
2023-01-30T01:13:35.022Z,98163.50
2023-01-30T01:16:01.355Z,98173.94
2023-01-30T01:18:27.716Z,98182.97
2023-01-30T01:20:54.163Z,98161.13
2023-01-30T01:23:20.540Z,98165.09
2023-01-30T01:25:46.851Z,98140.59
2023-01-30T01:28:13.163Z,98152.63
2023-01-30T01:30:39.479Z,98138.19
2023-01-30T01:33:05.793Z,98133.91
2023-01-30T01:35:32.102Z,98114.75
2023-01-30T01:37:58.442Z,98105.69
2023-01-30T01:40:43.510Z,98104.09
2023-01-30T01:43:14.712Z,98096.91
2023-01-30T01:45:41.045Z,98099.28
2023-01-30T01:48:12.501Z,98095.31
2023-01-30T01:50:41.462Z,98076.38
2023-01-30T01:53:07.987Z,98065.47
2023-01-30T01:55:34.287Z,98081.72
2023-01-30T01:58:03.403Z,98053.75
2023-01-30T02:00:29.717Z,98079.06
2023-01-30T02:02:56.899Z,98053.75
2023-01-30T02:05:23.211Z,98060.41
2023-01-30T02:07:54.315Z,98044.16
2023-01-30T02:10:21.602Z,98044.16
2023-01-30T02:12:48.048Z,98036.97
2023-01-30T02:15:14.388Z,98048.16
2023-01-30T02:17:41.002Z,98046.56
2023-01-30T02:20:07.264Z,98039.38
2023-01-30T02:22:37.445Z,98026.31
2023-01-30T02:25:15.265Z,98025.81
2023-01-30T02:28:00.741Z,98019.13
2023-01-30T02:30:45.449Z,98021.81
2023-01-30T02:33:25.300Z,98006.34
2023-01-30T02:36:00.757Z,98011.16
2023-01-30T02:38:33.119Z,97993.31
2023-01-30T02:40:59.346Z,97993.84
2023-01-30T02:43:34.114Z,97967.22
2023-01-30T02:46:02.052Z,97959.00
2023-01-30T02:48:39.663Z,97959.25
2023-01-30T02:51:07.116Z,97954.19
2023-01-30T02:53:33.807Z,97948.31
2023-01-30T02:56:01.186Z,97950.75
2023-01-30T02:58:29.335Z,97953.66
2023-01-30T03:01:03.714Z,97962.97
2023-01-30T03:03:30.055Z,97941.38
2023-01-30T03:06:07.011Z,97931.03
2023-01-30T03:08:42.586Z,97931.53
2023-01-30T03:11:09.029Z,97921.97
2023-01-30T03:13:47.704Z,97922.50
2023-01-30T03:16:43.361Z,97931.53
2023-01-30T03:19:10.396Z,97900.41
2023-01-30T03:21:40.228Z,97920.91
2023-01-30T03:24:07.027Z,97904.41
2023-01-30T03:26:33.374Z,97919.31
2023-01-30T03:28:59.748Z,97925.69
2023-01-30T03:31:26.157Z,97914.50
2023-01-30T03:33:52.544Z,97911.59
2023-01-30T03:36:19.032Z,97916.66
2023-01-30T03:38:45.371Z,97901.50
2023-01-30T03:41:11.685Z,97910.53
2023-01-30T03:43:38.039Z,97896.44
2023-01-30T03:46:04.419Z,97886.84
2023-01-30T03:48:30.927Z,97886.06
2023-01-30T03:50:57.355Z,97880.22
2023-01-30T03:53:24.027Z,97875.97
2023-01-30T03:55:50.384Z,97880.50
2023-01-30T03:58:16.729Z,97869.31
2023-01-30T04:00:43.429Z,97869.31
2023-01-30T04:03:10.020Z,97865.31
2023-01-30T04:05:36.359Z,97879.16
2023-01-30T04:08:02.691Z,97865.34
2023-01-30T04:10:29.339Z,97848.03
2023-01-30T04:12:55.885Z,97865.84
2023-01-30T04:15:22.211Z,97853.88
2023-01-30T04:17:48.546Z,97852.28
2023-01-30T04:20:14.977Z,97837.91
2023-01-30T04:22:41.355Z,97844.31
2023-01-30T04:25:07.798Z,97831.81
2023-01-30T04:27:34.124Z,97839.53
2023-01-30T04:30:00.476Z,97828.06
2023-01-30T04:32:27.169Z,97819.84
2023-01-30T04:34:53.485Z,97836.06
2023-01-30T04:37:19.798Z,97831.00
2023-01-30T04:39:46.110Z,97823.31
2023-01-30T04:42:12.450Z,97838.72
2023-01-30T04:44:38.814Z,97837.91
2023-01-30T04:47:05.135Z,97827.56
2023-01-30T04:49:31.435Z,97832.09
2023-01-30T04:51:57.778Z,97838.19
2023-01-30T04:54:24.087Z,97824.09
2023-01-30T04:56:50.400Z,97812.94
2023-01-30T04:59:17.126Z,97824.63
2023-01-30T05:01:43.507Z,97825.69
2023-01-30T05:04:09.851Z,97826.78
2023-01-30T05:06:36.716Z,97809.19
2023-01-30T05:09:03.138Z,97821.44
2023-01-30T05:11:29.512Z,97802.28
2023-01-30T05:13:55.850Z,97787.41
2023-01-30T05:16:22.525Z,97806.28
2023-01-30T05:18:49.025Z,97802.28
2023-01-30T05:21:16.436Z,97795.38
2023-01-30T05:23:42.759Z,97808.13
2023-01-30T05:26:09.183Z,97808.41
2023-01-30T05:28:35.518Z,97794.59
2023-01-30T05:31:05.594Z,97800.72
2023-01-30T05:33:32.022Z,97785.84
2023-01-30T05:35:59.088Z,97786.06
2023-01-30T05:38:25.643Z,97787.94
2023-01-30T05:41:01.605Z,97789.00
2023-01-30T05:43:27.930Z,97789.53
2023-01-30T05:45:54.743Z,97797.50
2023-01-30T05:48:21.340Z,97789.53
2023-01-30T05:50:47.920Z,97790.34
2023-01-30T05:53:14.510Z,97789.53
2023-01-30T05:55:40.836Z,97779.16
2023-01-30T05:58:07.163Z,97791.66
2023-01-30T06:00:33.498Z,97789.00
2023-01-30T06:02:59.886Z,97782.09
2023-01-30T06:05:26.239Z,97786.63
2023-01-30T06:07:52.697Z,97797.50
2023-01-30T06:10:19.242Z,97791.38
2023-01-30T06:12:45.563Z,97795.38
2023-01-30T06:15:11.879Z,97799.63
2023-01-30T06:17:42.046Z,97808.41
2023-01-30T06:20:08.719Z,97810.28
2023-01-30T06:22:35.021Z,97822.50
2023-01-30T06:25:01.527Z,97827.00
2023-01-30T06:27:28.097Z,97831.81
2023-01-30T06:29:54.401Z,97832.06
2023-01-30T06:32:20.704Z,97826.22
2023-01-30T06:34:47.067Z,97827.28
2023-01-30T06:37:13.640Z,97847.19
2023-01-30T06:39:39.951Z,97857.31
2023-01-30T06:42:07.130Z,97833.63
2023-01-30T06:44:33.518Z,97836.56
2023-01-30T06:46:59.829Z,97843.47
2023-01-30T06:49:26.175Z,97825.16
2023-01-30T06:51:52.499Z,97839.50
2023-01-30T06:54:18.824Z,97821.16
2023-01-30T06:56:45.152Z,97824.34
2023-01-30T06:59:11.486Z,97825.16
2023-01-30T07:01:38.790Z,97824.63
2023-01-30T07:04:05.204Z,97808.69
2023-01-30T07:06:31.750Z,97822.47
2023-01-30T07:08:58.849Z,97836.28
2023-01-30T07:11:25.515Z,97830.44
2023-01-30T07:13:51.917Z,97813.72
2023-01-30T07:16:18.276Z,97824.63
2023-01-30T07:18:44.762Z,97821.13
2023-01-30T07:21:11.108Z,97828.31
2023-01-30T07:23:37.478Z,97824.84
2023-01-30T07:26:04.783Z,97831.25
2023-01-30T07:28:31.120Z,97825.13
2023-01-30T07:31:00.478Z,97833.63
2023-01-30T07:33:26.813Z,97828.06
2023-01-30T07:35:53.130Z,97815.81
2023-01-30T07:38:19.451Z,97839.72
2023-01-30T07:40:46.070Z,97847.47
2023-01-30T07:43:12.815Z,97835.25
2023-01-30T07:45:40.104Z,97829.66
2023-01-30T07:48:06.849Z,97819.25
2023-01-30T07:50:33.214Z,97818.22
2023-01-30T07:52:59.530Z,97821.97
2023-01-30T07:55:26.683Z,97821.69
2023-01-30T07:57:53.022Z,97822.75
2023-01-30T08:00:19.694Z,97827.28
2023-01-30T08:02:46.183Z,97823.56
2023-01-30T08:05:12.489Z,97822.47
2023-01-30T08:07:38.787Z,97829.41
2023-01-30T08:10:05.339Z,97804.44
2023-01-30T08:12:31.801Z,97838.47
2023-01-30T08:14:58.141Z,97823.84
2023-01-30T08:17:24.445Z,97814.25
2023-01-30T08:19:50.762Z,97826.75
2023-01-30T08:22:17.180Z,97824.91
2023-01-30T08:24:43.504Z,97832.88
2023-01-30T08:27:09.851Z,97840.59
2023-01-30T08:29:36.175Z,97843.22
2023-01-30T08:32:02.496Z,97836.31
2023-01-30T08:34:28.864Z,97846.41
2023-01-30T08:36:55.247Z,97846.91
2023-01-30T08:39:21.570Z,97845.03
2023-01-30T08:41:47.911Z,97850.34
2023-01-30T08:44:14.228Z,97842.09
2023-01-30T08:46:40.817Z,97853.25
2023-01-30T08:49:07.141Z,97861.22
2023-01-30T08:51:33.551Z,97857.25
2023-01-30T08:53:59.904Z,97853.56
2023-01-30T08:56:26.220Z,97856.78
2023-01-30T08:58:52.662Z,97870.38
2023-01-30T09:01:19.044Z,97858.09
2023-01-30T09:03:45.394Z,97854.91
2023-01-30T09:06:11.879Z,97847.44
2023-01-30T09:08:38.187Z,97849.00
2023-01-30T09:11:04.804Z,97855.41
2023-01-30T09:13:31.283Z,97846.66
2023-01-30T09:15:58.021Z,97840.53
2023-01-30T09:18:24.571Z,97847.97
2023-01-30T09:20:52.718Z,97841.34
2023-01-30T09:23:20.041Z,97852.50
2023-01-30T09:25:46.751Z,97854.91
2023-01-30T09:28:13.166Z,97861.31
2023-01-30T09:30:39.587Z,97861.03
2023-01-30T09:33:05.983Z,97867.44
2023-01-30T09:35:32.353Z,97879.66
2023-01-30T09:37:59.187Z,97885.53
2023-01-30T09:40:28.867Z,97894.31
2023-01-30T09:43:07.427Z,97899.91
2023-01-30T09:45:36.681Z,97887.91
2023-01-30T09:48:17.372Z,97881.75
2023-01-30T09:51:02.543Z,97897.75
2023-01-30T09:53:31.456Z,97904.13
2023-01-30T09:55:58.035Z,97881.50
2023-01-30T09:58:24.466Z,97888.69
2023-01-30T10:00:51.829Z,97883.66
2023-01-30T10:03:19.307Z,97883.94
2023-01-30T10:06:15.076Z,97864.47
2023-01-30T10:08:44.163Z,97877.28
2023-01-30T10:11:13.858Z,97894.56
2023-01-30T10:13:56.706Z,97869.00
2023-01-30T10:16:35.109Z,97872.44
2023-01-30T10:19:01.621Z,97860.19
2023-01-30T10:21:40.354Z,97854.59
2023-01-30T10:24:06.827Z,97865.50
2023-01-30T10:26:33.333Z,97860.75
2023-01-30T10:29:08.019Z,97884.44
2023-01-30T10:31:36.430Z,97883.09
2023-01-30T10:34:03.527Z,97884.16
2023-01-30T10:36:33.664Z,97888.69
2023-01-30T10:39:00.653Z,97872.97
2023-01-30T10:41:28.634Z,97878.81
2023-01-30T10:44:04.393Z,97871.63
2023-01-30T10:46:50.192Z,97873.50
2023-01-30T10:49:57.152Z,97864.72
2023-01-30T10:52:42.252Z,97869.53
2023-01-30T10:55:36.262Z,97864.44
2023-01-30T10:58:03.274Z,97866.88
2023-01-30T11:00:39.750Z,97901.47
2023-01-30T11:03:18.270Z,97875.38
2023-01-30T11:05:45.653Z,97884.72
2023-01-30T11:08:13.795Z,97877.78
2023-01-30T11:10:40.138Z,97868.47
2023-01-30T11:13:14.515Z,97866.91
2023-01-30T11:15:41.029Z,97874.63
2023-01-30T11:18:33.496Z,97865.53
2023-01-30T11:21:03.995Z,97881.47
2023-01-30T11:23:34.967Z,97867.81
2023-01-30T11:26:10.905Z,97867.19
2023-01-30T11:28:41.578Z,97859.94
2023-01-30T11:31:16.506Z,97864.44
2023-01-30T11:33:43.151Z,97866.25
2023-01-30T11:36:23.820Z,97868.63
2023-01-30T11:38:54.631Z,97858.09
2023-01-30T11:41:21.449Z,97849.72
2023-01-30T11:43:48.399Z,97855.50
2023-01-30T11:46:16.430Z,97855.31
2023-01-30T11:49:09.156Z,97841.00
2023-01-30T11:51:37.454Z,97838.88
2023-01-30T11:54:04.717Z,97831.16
2023-01-30T11:56:33.011Z,97830.03
2023-01-30T11:58:59.825Z,97820.16
2023-01-30T12:01:27.273Z,97823.84
2023-01-30T12:03:53.840Z,97831.56
2023-01-30T12:06:33.334Z,97836.09
2023-01-30T12:08:59.740Z,97827.50
2023-01-30T12:11:26.341Z,97822.41
2023-01-30T12:13:53.027Z,97811.19
2023-01-30T12:16:20.947Z,97801.84
2023-01-30T12:19:01.798Z,97811.66
2023-01-30T12:21:31.829Z,97794.25
2023-01-30T12:24:12.496Z,97802.78
2023-01-30T12:26:48.154Z,97800.69
2023-01-30T12:29:23.187Z,97807.91
2023-01-30T12:31:52.567Z,97820.69
2023-01-30T12:34:18.893Z,97812.69
2023-01-30T12:36:58.372Z,97819.91
2023-01-30T12:39:43.714Z,97821.19
2023-01-30T12:42:28.955Z,97834.25
2023-01-30T12:44:55.201Z,97828.06
2023-01-30T12:47:28.642Z,97827.84
2023-01-30T12:50:14.255Z,97823.81
2023-01-30T12:52:43.569Z,97840.56
2023-01-30T12:55:30.147Z,97839.53
2023-01-30T12:58:03.823Z,97876.69
2023-01-30T13:00:48.498Z,97928.75
2023-01-30T13:03:33.676Z,97893.75
2023-01-30T13:06:18.826Z,97868.66
2023-01-30T13:09:03.150Z,97868.88
2023-01-30T13:11:50.297Z,97881.94
2023-01-30T13:14:31.130Z,97873.16
2023-01-30T13:17:00.827Z,97866.16
2023-01-30T13:19:40.842Z,97867.16
2023-01-30T13:22:10.688Z,97861.25
2023-01-30T13:24:39.995Z,97875.34
2023-01-30T13:27:09.375Z,97886.22
2023-01-30T13:29:36.372Z,97895.03
2023-01-30T13:32:03.745Z,97904.69
2023-01-30T13:34:31.592Z,97898.72
2023-01-30T13:37:03.830Z,97902.00
2023-01-30T13:39:59.711Z,97916.63
2023-01-30T13:42:35.049Z,97906.63
2023-01-30T13:45:01.490Z,97908.00
2023-01-30T13:47:39.653Z,97923.19
2023-01-30T13:50:19.939Z,97929.13
2023-01-30T13:53:06.351Z,97927.25
2023-01-30T13:55:51.336Z,97927.81
2023-01-30T13:58:25.078Z,97922.25
2023-01-30T14:00:51.865Z,97935.13
2023-01-30T14:03:25.272Z,97935.75
2023-01-30T14:05:51.805Z,97942.22
2023-01-30T14:08:22.019Z,97947.56
2023-01-30T14:10:48.650Z,97967.56
2023-01-30T14:13:15.103Z,97970.28
2023-01-30T14:15:42.649Z,97971.38
2023-01-30T14:18:19.281Z,97974.00
2023-01-30T14:20:46.496Z,97977.78
2023-01-30T14:23:22.669Z,97974.59
2023-01-30T14:25:52.780Z,97987.09
2023-01-30T14:28:19.048Z,98006.63
2023-01-30T14:30:45.360Z,98010.13
2023-01-30T14:33:20.645Z,98003.72
2023-01-30T14:36:07.481Z,97997.06
2023-01-30T14:38:34.335Z,98006.19
2023-01-30T14:41:00.602Z,98018.44
2023-01-30T14:43:26.853Z,98029.16
2023-01-30T14:45:53.231Z,98030.22
2023-01-30T14:48:38.376Z,98039.31
2023-01-30T14:51:16.968Z,98039.84
2023-01-30T14:56:09.538Z,98063.19
2023-01-30T14:58:35.871Z,98074.66
2023-01-30T15:01:02.284Z,98080.56
2023-01-30T15:03:28.655Z,98081.44
2023-01-30T15:05:56.710Z,98088.81
2023-01-30T15:08:23.466Z,98101.06
2023-01-30T15:10:54.468Z,98105.63
2023-01-30T15:13:37.862Z,98112.03
2023-01-30T15:16:07.016Z,98123.47
2023-01-30T15:18:46.551Z,98136.75
2023-01-30T15:21:37.095Z,98135.16
2023-01-30T15:24:21.973Z,98149.56
2023-01-30T15:26:48.308Z,98152.78
2023-01-30T15:29:33.522Z,98165.56
2023-01-30T15:32:02.889Z,98170.91
2023-01-30T15:34:32.407Z,98167.69
2023-01-30T15:36:58.752Z,98180.75
2023-01-30T15:39:25.599Z,98181.28
2023-01-30T15:41:57.207Z,98177.25
2023-01-30T15:44:32.646Z,98187.09
2023-01-30T15:47:17.789Z,98193.22
2023-01-30T15:49:50.677Z,98195.34
2023-01-30T15:52:17.946Z,98198.25
2023-01-30T15:54:49.889Z,98210.25
2023-01-30T15:57:17.926Z,98194.75
2023-01-30T15:59:44.418Z,98209.72
2023-01-30T16:02:14.497Z,98208.63
2023-01-30T16:04:40.976Z,98212.09
2023-01-30T16:07:25.778Z,98224.13
2023-01-30T16:10:07.213Z,98215.34
2023-01-30T16:12:33.839Z,98235.34
2023-01-30T16:15:12.335Z,98225.72
2023-01-30T16:17:45.287Z,98234.53
2023-01-30T16:20:12.601Z,98233.44
2023-01-30T16:22:41.327Z,98240.94
2023-01-30T16:25:11.172Z,98252.06
2023-01-30T16:27:37.505Z,98256.84
2023-01-30T16:32:52.194Z,98257.66
2023-01-30T16:35:27.267Z,98269.97
2023-01-30T16:37:55.127Z,98272.34
2023-01-30T16:40:24.909Z,98279.03
2023-01-30T16:43:01.271Z,98282.75
2023-01-30T16:45:33.528Z,98284.38
2023-01-30T16:48:11.952Z,98275.56
2023-01-30T16:50:38.859Z,98282.53
2023-01-30T16:53:05.336Z,98283.31
2023-01-30T16:55:31.774Z,98280.59
2023-01-30T16:57:58.783Z,98294.50
2023-01-30T17:00:25.218Z,98297.63
2023-01-30T17:02:53.162Z,98312.63
2023-01-30T17:05:23.296Z,98306.16
2023-01-30T17:07:49.860Z,98314.44
2023-01-30T17:10:28.455Z,98310.72
2023-01-30T17:12:57.990Z,98328.38
2023-01-30T17:15:42.574Z,98335.06
2023-01-30T17:18:10.025Z,98341.75
2023-01-30T17:20:37.802Z,98342.56
2023-01-30T17:23:06.191Z,98345.78
2023-01-30T17:25:39.751Z,98350.59
2023-01-30T17:28:06.702Z,98357.56
2023-01-30T17:30:33.030Z,98359.38
2023-01-30T17:32:59.351Z,98360.38
2023-01-30T17:35:25.659Z,98366.44
2023-01-30T17:38:04.747Z,98382.75
2023-01-30T17:40:33.281Z,98408.66
2023-01-30T17:42:59.666Z,98382.75
2023-01-30T17:45:26.043Z,98380.81
2023-01-30T17:47:52.507Z,98372.28
2023-01-30T17:50:19.194Z,98391.81
2023-01-30T17:52:45.931Z,98388.09
2023-01-30T17:55:13.009Z,98392.66
2023-01-30T17:57:39.505Z,98399.13
2023-01-30T18:00:06.023Z,98406.91
2023-01-30T18:02:33.384Z,98401.53
2023-01-30T18:04:59.732Z,98412.53
2023-01-30T18:07:26.083Z,98411.75
2023-01-30T18:09:52.396Z,98412.78
2023-01-30T18:12:18.826Z,98423.75
2023-01-30T18:14:45.146Z,98421.34
2023-01-30T18:17:12.441Z,98424.03
2023-01-30T18:19:38.766Z,98431.53
2023-01-30T18:22:05.096Z,98430.75
2023-01-30T18:24:31.402Z,98439.63
2023-01-30T18:26:58.771Z,98437.75
2023-01-30T18:29:26.536Z,98446.34
2023-01-30T18:31:53.009Z,98454.91
2023-01-30T18:34:19.374Z,98467.47
2023-01-30T18:36:45.680Z,98462.38
2023-01-30T18:39:12.334Z,98476.03
2023-01-30T18:41:38.650Z,98484.88
2023-01-30T18:44:12.728Z,98480.34
2023-01-30T18:46:39.076Z,98471.22
2023-01-30T18:49:06.329Z,98483.78
2023-01-30T18:51:34.077Z,98484.06
2023-01-30T18:54:00.570Z,98487.31
2023-01-30T18:56:28.016Z,98490.25
2023-01-30T18:58:54.549Z,98497.22
2023-01-30T19:01:21.799Z,98492.09
2023-01-30T19:03:48.146Z,98519.91
2023-01-30T19:06:15.231Z,98518.03
2023-01-30T19:08:41.554Z,98538.09
2023-01-30T19:11:27.656Z,98519.91
2023-01-30T19:13:54.067Z,98522.31
2023-01-30T19:16:20.838Z,98537.56
2023-01-30T19:18:47.195Z,98549.63
2023-01-30T19:21:13.748Z,98545.59
2023-01-30T19:23:40.094Z,98544.53
2023-01-30T19:26:06.467Z,98557.09
2023-01-30T19:28:32.790Z,98551.50
2023-01-30T19:30:59.192Z,98555.78
2023-01-30T19:33:25.560Z,98560.06
2023-01-30T19:35:51.877Z,98572.06
2023-01-30T19:38:18.242Z,98573.94
2023-01-30T19:40:44.877Z,98569.13
2023-01-30T19:43:14.197Z,98583.84
2023-01-30T19:45:40.789Z,98572.34
2023-01-30T19:48:07.162Z,98580.34
2023-01-30T19:50:33.512Z,98578.75
2023-01-30T19:52:59.877Z,98572.31
2023-01-30T19:55:26.529Z,98587.53
2023-01-30T19:57:52.914Z,98593.91
2023-01-30T20:00:19.632Z,98610.41
2023-01-30T20:02:46.161Z,98607.13
2023-01-30T20:05:12.554Z,98606.56
2023-01-30T20:07:38.950Z,98607.88
2023-01-30T20:10:05.521Z,98613.47
2023-01-30T20:12:35.682Z,98609.97
2023-01-30T20:15:03.327Z,98615.84
2023-01-30T20:17:31.361Z,98618.19
2023-01-30T20:19:57.711Z,98617.09
2023-01-30T20:22:24.031Z,98611.78
2023-01-30T20:24:50.352Z,98599.41
2023-01-30T20:27:16.659Z,98621.44
2023-01-30T20:29:42.982Z,98617.31
2023-01-30T20:32:09.290Z,98619.72
2023-01-30T20:34:35.618Z,98643.84
2023-01-30T20:37:01.939Z,98647.31
2023-01-30T20:39:28.285Z,98653.72
2023-01-30T20:41:54.616Z,98664.16
2023-01-30T20:44:21.057Z,98654.00
2023-01-30T20:46:48.977Z,98677.03
2023-01-30T20:49:21.638Z,98658.75
2023-01-30T20:51:50.143Z,98668.16
2023-01-30T20:54:16.571Z,98670.03
2023-01-30T20:56:43.831Z,98662.81
2023-01-30T20:59:10.841Z,98670.31
2023-01-30T21:01:37.434Z,98671.69
2023-01-30T21:04:04.635Z,98679.97
2023-01-30T21:06:41.821Z,98660.63
2023-01-30T21:09:12.612Z,98674.88
2023-01-30T21:11:39.467Z,98667.91
2023-01-30T21:14:05.914Z,98677.03
2023-01-30T21:16:32.468Z,98671.38
2023-01-30T21:19:02.389Z,98671.69
2023-01-30T21:21:31.380Z,98678.16
2023-01-30T21:23:59.534Z,98667.22
2023-01-30T21:26:27.185Z,98678.25
2023-01-30T21:28:55.183Z,98682.53
2023-01-30T21:31:22.310Z,98686.91
2023-01-30T21:33:49.568Z,98685.59
2023-01-30T21:36:17.135Z,98704.09
2023-01-30T21:39:02.194Z,98700.66
2023-01-30T21:41:48.017Z,98697.47
2023-01-30T21:44:14.364Z,98688.09
2023-01-30T21:46:41.127Z,98698.78
2023-01-30T21:49:07.593Z,98696.66
2023-01-30T21:51:33.917Z,98711.34
2023-01-30T21:54:00.250Z,98689.69
2023-01-30T21:56:26.560Z,98696.09
2023-01-30T21:58:52.955Z,98700.66
2023-01-30T22:01:19.333Z,98707.84
2023-01-30T22:03:45.815Z,98709.72
2023-01-30T22:06:12.867Z,98717.19
2023-01-30T22:08:40.002Z,98712.41
2023-01-30T22:11:09.874Z,98709.19
2023-01-30T22:13:36.527Z,98710.78
2023-01-30T22:16:03.837Z,98708.38
2023-01-30T22:18:31.243Z,98720.13
2023-01-30T22:21:16.278Z,98734.28
2023-01-30T22:23:46.243Z,98725.72
2023-01-30T22:26:12.966Z,98738.03
2023-01-30T22:28:39.724Z,98740.66
2023-01-30T22:31:09.975Z,98742.81
2023-01-30T22:33:36.611Z,98758.81
2023-01-30T22:36:03.421Z,98749.19
2023-01-30T22:38:29.746Z,98753.47
2023-01-30T22:41:00.893Z,98749.69
2023-01-30T22:43:28.356Z,98752.88
2023-01-30T22:46:00.959Z,98751.28
2023-01-30T22:48:27.950Z,98739.75
2023-01-30T22:51:23.375Z,98746.41
2023-01-30T22:53:56.461Z,98744.00
2023-01-30T22:56:23.555Z,98747.47
2023-01-30T22:58:49.898Z,98738.91
2023-01-30T23:01:20.007Z,98745.28
2023-01-30T23:03:47.520Z,98741.28
2023-01-30T23:06:15.119Z,98742.38
2023-01-30T23:08:42.296Z,98741.81
2023-01-30T23:11:18.319Z,98750.34
2023-01-30T23:13:45.164Z,98742.59
2023-01-30T23:16:11.533Z,98745.00
2023-01-30T23:18:56.246Z,98739.91
2023-01-30T23:21:23.339Z,98758.59
2023-01-30T23:23:51.100Z,98751.09
2023-01-30T23:26:17.441Z,98750.81
2023-01-30T23:28:43.798Z,98752.94
2023-01-30T23:31:14.492Z,98752.41
2023-01-30T23:33:40.865Z,98751.03
2023-01-30T23:36:08.095Z,98737.66
2023-01-30T23:38:34.419Z,98746.22
2023-01-30T23:41:04.355Z,98748.34
2023-01-30T23:43:30.905Z,98752.56
2023-01-30T23:45:59.071Z,98763.50
2023-01-30T23:48:25.444Z,98762.97
2023-01-30T23:50:51.759Z,98763.22
2023-01-30T23:53:18.071Z,98754.13
2023-01-30T23:55:51.814Z,98764.25
2023-01-30T23:58:18.131Z,98761.84
